This is the latest recevied weather packets stored in our database for station/object DH4BS-10. If no packets are shown the sender has not sent any weather packets the latest 10 day(s).
| Time | Temp. | Humidity | Pressure | Rain* | Wind** | Luminosity | Snow |
|---|---|---|---|---|---|---|---|
| 1777565639 | 26.11° C | 34% | 1029.3 hPa | - | - | - | - |
| 1777562039 | 26.11° C | 34% | 1029.5 hPa | - | - | - | - |
| 1777558439 | 25.56° C | 34% | 1029.8 hPa | - | - | - | - |
| 1777554839 | 25° C | 34% | 1030.4 hPa | - | - | - | - |
| 1777551238 | 23.89° C | 35% | 1031 hPa | - | - | - | - |
| 1777547638 | 22.22° C | 35% | 1031.6 hPa | - | - | - | - |
| 1777544038 | 20.56° C | 35% | 1032.2 hPa | - | - | - | - |
| 1777540438 | 19.44° C | 35% | 1032.6 hPa | - | - | - | - |
| 1777536838 | 17.78° C | 35% | 1032.5 hPa | - | - | - | - |
| 1777533238 | 16.11° C | 36% | 1032.8 hPa | - | - | - | - |
| 1777529637 | 14.44° C | 36% | 1032.7 hPa | - | - | - | - |
| 1777526037 | 14.44° C | 36% | 1032.2 hPa | - | - | - | - |
| 1777522437 | 14.44° C | 36% | 1031.8 hPa | - | - | - | - |
| 1777518837 | 15° C | 36% | 1031.6 hPa | - | - | - | - |
| 1777515237 | 16.11° C | 36% | 1031.4 hPa | - | - | - | - |
| 1777511637 | 16.67° C | 35% | 1031.2 hPa | - | - | - | - |
| 1777508036 | 17.78° C | 36% | 1030.7 hPa | - | - | - | - |
| 1777504436 | 18.33° C | 35% | 1031 hPa | - | - | - | - |
| 1777500836 | 18.89° C | 35% | 1030.7 hPa | - | - | - | - |
| 1777497236 | 20.56° C | 35% | 1030.4 hPa | - | - | - | - |
| 1777493636 | 25.56° C | 32% | 1030.1 hPa | - | - | - | - |
| 1777487868 | 23.33° C | 35% | 1029.2 hPa | - | - | - | - |
| 1777484268 | 23.89° C | 35% | 1028.6 hPa | - | - | - | - |
| 1777480667 | 26.67° C | 33% | 1028.4 hPa | - | - | - | - |
| 1777477071 | 25° C | 35% | 1028.3 hPa | - | - | - | - |
* Rain since midnight (hover to see other rain measurements)
** Current wind speed in m/s (hover to see current wind gust speed)